Time;durP1;ratioP1;P1;durP2;ratioP2;P2;SDS_P1;SDS_P2;PMS_P1;PMS_P2;Temp;Humidity;BMP_temperature;BMP_pressure;BME280_temperature;BME280_humidity;BME280_pressure;Samples;Min_cycle;Max_cycle;Signal;HPM_P1;HPM_P2
2022/09/29 00:01:10;;;;;;;9.18;4.13;;;;;;;9.48;100.00;99880.91;5074213;28;20036;-53
2022/09/29 00:03:38;;;;;;;6.35;4.00;;;;;;;9.43;99.34;99874.69;5074590;28;20048;-55
2022/09/29 00:06:13;;;;;;;7.30;3.80;;;;;;;9.32;99.85;99869.31;5067614;28;20045;-55
2022/09/29 00:08:41;;;;;;;6.72;3.88;;;;;;;9.24;100.00;99878.09;5066508;28;20040;-59
2022/09/29 00:11:11;;;;;;;8.25;3.80;;;;;;;9.21;100.00;99878.63;5056812;28;20056;-57
2022/09/29 00:13:38;;;;;;;10.00;3.83;;;;;;;9.23;100.00;99872.94;5057853;28;20040;-58
2022/09/29 00:16:09;;;;;;;6.00;3.80;;;;;;;9.23;100.00;99875.66;5070973;28;20072;-55
2022/09/29 00:18:40;;;;;;;9.65;3.78;;;;;;;9.20;100.00;99871.59;5064755;28;20044;-58
2022/09/29 00:21:15;;;;;;;5.90;3.80;;;;;;;9.23;100.00;99876.44;5073915;28;20045;-59
2022/09/29 00:23:42;;;;;;;9.10;3.90;;;;;;;9.21;100.00;99873.19;5068971;28;20037;-57
2022/09/29 00:26:19;;;;;;;9.52;3.83;;;;;;;9.18;100.00;99871.84;5072655;28;20482;-59
2022/09/29 00:28:52;;;;;;;6.68;3.70;;;;;;;9.17;100.00;99872.97;5074331;28;20063;-60
2022/09/29 00:31:24;;;;;;;7.43;3.72;;;;;;;9.17;100.00;99872.16;5072277;28;20399;-59
2022/09/29 00:33:56;;;;;;;6.72;3.65;;;;;;;9.18;100.00;99868.34;5072410;28;20040;-58
2022/09/29 00:36:29;;;;;;;7.68;3.55;;;;;;;9.18;100.00;99871.06;5073656;28;20041;-54
2022/09/29 00:38:57;;;;;;;8.50;3.53;;;;;;;9.18;100.00;99866.41;5074826;28;20044;-57
2022/09/29 00:41:28;;;;;;;6.95;3.85;;;;;;;9.21;100.00;99866.97;5067813;28;20044;-58
2022/09/29 00:44:19;;;;;;;10.63;3.80;;;;;;;9.22;100.00;99868.59;5074400;28;20056;-57
2022/09/29 00:46:53;;;;;;;7.60;3.72;;;;;;;9.23;100.00;99865.56;5063261;28;20041;-56
2022/09/29 00:49:27;;;;;;;6.00;3.70;;;;;;;9.23;100.00;99862.84;5071871;28;20040;-53
2022/09/29 00:52:01;;;;;;;7.93;3.60;;;;;;;9.24;100.00;99863.69;5066017;28;20053;-54
2022/09/29 00:54:40;;;;;;;8.90;4.10;;;;;;;9.21;99.41;99859.59;5062492;28;20037;-58
2022/09/29 00:57:10;;;;;;;7.60;3.78;;;;;;;9.18;99.43;99865.63;5046328;28;20041;-57
2022/09/29 00:59:58;;;;;;;8.02;3.90;;;;;;;9.15;99.69;99858.03;5070653;28;20036;-59
2022/09/29 01:02:30;;;;;;;6.85;4.13;;;;;;;9.13;99.39;99869.19;5058835;28;20045;-60
2022/09/29 01:04:59;;;;;;;6.20;3.80;;;;;;;9.09;99.58;99867.31;5073822;28;20415;-56
2022/09/29 01:07:27;;;;;;;7.30;3.88;;;;;;;9.05;99.77;99863.53;5072960;28;20460;-53
2022/09/29 01:09:55;;;;;;;9.30;4.00;;;;;;;9.04;100.00;99861.91;5055756;28;20040;-56
2022/09/29 01:12:23;;;;;;;9.02;4.00;;;;;;;9.06;100.00;99857.00;5066638;28;20051;-59
2022/09/29 01:14:53;;;;;;;6.70;3.83;;;;;;;9.08;100.00;99863.78;5075274;28;20044;-55
2022/09/29 01:17:21;;;;;;;5.82;3.75;;;;;;;9.11;100.00;99852.34;5080848;28;20040;-59
2022/09/29 01:20:11;;;;;;;10.88;4.65;;;;;;;9.11;99.79;99859.69;5082407;28;20044;-57
2022/09/29 01:23:11;;;;;;;8.90;4.15;;;;;;;9.06;99.93;99867.88;5065962;28;20127;-56
2022/09/29 01:26:11;;;;;;;7.45;4.15;;;;;;;9.03;99.99;99860.28;5075336;28;20131;-55
2022/09/29 01:28:41;;;;;;;10.57;4.88;;;;;;;9.01;99.98;99863.28;5067052;28;20036;-60
2022/09/29 01:31:21;;;;;;;6.85;4.10;;;;;;;8.98;100.00;99861.13;5073645;28;20037;-58
2022/09/29 01:34:17;;;;;;;10.65;4.72;;;;;;;8.98;99.95;99863.03;5066114;28;20048;-56
2022/09/29 01:36:57;;;;;;;8.82;4.78;;;;;;;8.95;100.00;99876.09;5063090;28;20037;-57
2022/09/29 01:39:39;;;;;;;6.90;4.28;;;;;;;8.99;100.00;99870.09;5076646;28;20040;-58
2022/09/29 01:42:18;;;;;;;9.57;4.22;;;;;;;9.00;100.00;99864.38;5076811;28;20052;-55
2022/09/29 01:44:49;;;;;;;9.50;4.20;;;;;;;9.01;100.00;99870.63;5072826;28;20116;-55
2022/09/29 01:47:36;;;;;;;6.97;3.88;;;;;;;9.01;100.00;99866.00;5074366;28;20067;-54
2022/09/29 01:50:35;;;;;;;8.90;3.80;;;;;;;9.04;100.00;99861.91;5071742;28;20418;-55
2022/09/29 01:53:17;;;;;;;7.53;3.97;;;;;;;9.03;100.00;99876.59;5063339;28;20044;-55
2022/09/29 01:55:51;;;;;;;7.75;4.22;;;;;;;9.02;100.00;99873.06;5063448;28;20114;-59
2022/09/29 01:58:41;;;;;;;6.50;3.97;;;;;;;9.02;100.00;99874.94;5088988;28;20060;-55
2022/09/29 02:01:11;;;;;;;7.05;4.00;;;;;;;9.01;100.00;99868.72;5071195;28;20104;-55
2022/09/29 02:04:11;;;;;;;8.40;4.00;;;;;;;8.99;100.00;99875.53;5078356;28;20096;-55
2022/09/29 02:06:45;;;;;;;6.40;4.00;;;;;;;8.94;100.00;99873.66;5080457;28;20047;-58
2022/09/29 02:09:19;;;;;;;7.45;4.03;;;;;;;8.87;99.97;99879.38;5074470;28;20041;-55
2022/09/29 02:11:50;;;;;;;8.20;3.97;;;;;;;8.80;100.00;99878.06;5059726;28;20465;-58
2022/09/29 02:14:31;;;;;;;7.38;3.97;;;;;;;8.78;100.00;99875.66;5073377;28;20054;-55
2022/09/29 02:17:29;;;;;;;6.93;4.30;;;;;;;8.78;100.00;99883.78;5072518;28;20052;-59
2022/09/29 02:19:57;;;;;;;6.68;4.15;;;;;;;8.76;100.00;99877.81;5062867;28;20060;-56
2022/09/29 02:22:25;;;;;;;6.95;4.32;;;;;;;8.77;100.00;99879.44;5054626;28;20071;-59
2022/09/29 02:24:54;;;;;;;8.77;3.83;;;;;;;8.74;100.00;99874.56;5069841;28;20153;-58
2022/09/29 02:27:22;;;;;;;7.20;4.20;;;;;;;8.75;100.00;99881.63;5069504;28;20097;-58
2022/09/29 02:29:50;;;;;;;6.50;3.95;;;;;;;8.78;100.00;99874.81;5069196;28;20082;-56
2022/09/29 02:32:18;;;;;;;7.53;4.00;;;;;;;8.80;100.00;99878.88;5058382;28;20040;-58
2022/09/29 02:34:49;;;;;;;9.18;3.80;;;;;;;8.81;100.00;99885.94;5073142;28;20040;-55
2022/09/29 02:37:22;;;;;;;9.50;4.65;;;;;;;8.77;99.59;99884.06;5058125;28;20052;-57
2022/09/29 02:40:13;;;;;;;7.57;4.30;;;;;;;8.72;100.00;99880.28;5072894;28;20044;-59
2022/09/29 02:42:52;;;;;;;7.70;4.10;;;;;;;8.73;100.00;99881.91;5064391;28;20483;-59
2022/09/29 02:45:22;;;;;;;;;;;;;;;8.74;99.81;99877.28;5069873;28;20053;-59
2022/09/29 02:47:59;;;;;;;6.07;3.80;;;;;;;8.70;99.52;99884.38;5071872;28;20080;-56
2022/09/29 02:50:45;;;;;;;9.82;4.30;;;;;;;8.64;99.94;99882.78;5072611;28;20048;-59
2022/09/29 02:53:32;;;;;;;6.85;4.25;;;;;;;8.62;100.00;99884.94;5056751;28;20033;-57
2022/09/29 02:56:14;;;;;;;7.85;4.20;;;;;;;8.64;100.00;99874.63;5064303;28;20049;-56
2022/09/29 02:58:49;;;;;;;10.45;4.50;;;;;;;8.66;100.00;99881.41;5060237;28;20399;-58
2022/09/29 03:01:17;;;;;;;9.32;4.50;;;;;;;8.67;100.00;99876.78;5070478;28;20045;-58
2022/09/29 03:03:45;;;;;;;7.90;5.00;;;;;;;8.68;100.00;99881.09;5065679;28;20098;-59
2022/09/29 03:06:13;;;;;;;7.53;4.03;;;;;;;8.63;99.99;99881.13;5065269;28;20037;-59
2022/09/29 03:08:41;;;;;;;8.40;4.10;;;;;;;8.56;100.00;99880.63;5071393;28;20036;-56
2022/09/29 03:11:08;;;;;;;8.18;4.22;;;;;;;8.57;100.00;99879.53;5062496;28;20443;-57
2022/09/29 03:13:39;;;;;;;7.85;4.32;;;;;;;8.57;100.00;99882.25;5076069;28;20041;-59
2022/09/29 03:16:06;;;;;;;7.60;4.45;;;;;;;8.52;100.00;99878.47;5076029;28;20109;-56
2022/09/29 03:18:34;;;;;;;10.32;4.55;;;;;;;8.50;100.00;99877.94;5068339;28;20486;-57
2022/09/29 03:21:02;;;;;;;5.90;4.07;;;;;;;8.51;100.00;99871.44;5068931;28;20048;-57
2022/09/29 03:23:30;;;;;;;7.47;4.57;;;;;;;8.54;100.00;99870.06;5066042;28;20032;-55
2022/09/29 03:25:58;;;;;;;7.05;4.10;;;;;;;8.54;100.00;99875.47;5074867;28;20072;-58
2022/09/29 03:28:25;;;;;;;9.65;4.70;;;;;;;8.53;100.00;99873.84;5076175;28;20043;-56
2022/09/29 03:30:54;;;;;;;8.15;4.45;;;;;;;8.49;99.69;99870.88;5058996;28;20398;-59
2022/09/29 03:33:22;;;;;;;9.50;4.63;;;;;;;8.50;100.00;99871.69;5075285;28;20495;-58
2022/09/29 03:35:49;;;;;;;8.52;4.93;;;;;;;8.49;100.00;99873.59;5065008;28;20037;-59
2022/09/29 03:38:17;;;;;;;8.50;4.45;;;;;;;8.49;100.00;99868.16;5058985;28;20098;-57
2022/09/29 03:40:47;;;;;;;9.07;4.25;;;;;;;8.50;99.96;99864.34;5076202;28;20120;-54
2022/09/29 03:43:15;;;;;;;7.68;4.30;;;;;;;8.50;100.00;99866.25;5064525;28;20056;-57
2022/09/29 03:45:50;;;;;;;7.15;4.45;;;;;;;8.45;99.38;99872.53;5074362;28;20044;-55
2022/09/29 03:48:19;;;;;;;10.27;4.47;;;;;;;8.39;99.28;99868.16;5075659;28;20048;-57
2022/09/29 03:50:52;;;;;;;7.80;4.43;;;;;;;8.40;99.64;99872.53;5058126;28;20376;-54
2022/09/29 03:53:20;;;;;;;8.20;4.40;;;;;;;8.41;99.76;99874.16;5072366;28;20044;-60
2022/09/29 03:55:48;;;;;;;11.50;4.80;;;;;;;8.41;99.21;99876.88;5061814;28;20406;-52
2022/09/29 03:58:17;;;;;;;8.90;4.55;;;;;;;8.39;98.89;99876.31;5074611;28;20044;-58
2022/09/29 04:00:46;;;;;;;12.75;4.50;;;;;;;8.39;99.13;99880.91;5057225;28;20041;-59
2022/09/29 04:03:14;;;;;;;7.38;4.25;;;;;;;8.40;99.54;99880.69;5069201;28;20044;-57
2022/09/29 04:05:45;;;;;;;9.15;4.70;;;;;;;8.38;99.11;99882.84;5086645;28;20048;-58
2022/09/29 04:08:14;;;;;;;7.32;4.28;;;;;;;8.38;99.71;99880.13;5065415;28;20494;-58
2022/09/29 04:10:42;;;;;;;7.40;4.60;;;;;;;8.38;99.94;99888.25;5059862;28;20048;-59
2022/09/29 04:13:10;;;;;;;11.95;4.88;;;;;;;8.39;100.00;99887.16;5072641;28;20449;-55
2022/09/29 04:15:38;;;;;;;7.72;4.88;;;;;;;8.38;100.00;99893.69;5059030;28;20060;-57
2022/09/29 04:18:06;;;;;;;10.27;4.60;;;;;;;8.38;99.84;99898.31;5057869;28;20048;-57
2022/09/29 04:20:38;;;;;;;8.85;4.78;;;;;;;8.37;100.00;99897.50;5073608;28;20048;-57
2022/09/29 04:23:06;;;;;;;10.35;5.20;;;;;;;8.33;99.42;99891.78;5068658;28;20043;-60
2022/09/29 04:25:34;;;;;;;7.25;4.28;;;;;;;8.30;99.36;99902.41;5060731;28;20057;-57
2022/09/29 04:28:04;;;;;;;7.60;4.40;;;;;;;8.26;99.33;99910.28;5073760;28;20509;-58
2022/09/29 04:30:32;;;;;;;9.80;4.45;;;;;;;8.22;99.22;99908.38;5070745;28;20407;-59
2022/09/29 04:32:59;;;;;;;8.48;5.00;;;;;;;8.16;99.11;99907.59;5073207;28;20425;-57
2022/09/29 04:35:27;;;;;;;8.93;5.00;;;;;;;8.10;99.21;99909.50;5071952;28;20036;-57
2022/09/29 04:37:58;;;;;;;7.72;4.50;;;;;;;8.05;99.26;99904.06;5055395;28;20045;-57
2022/09/29 04:40:26;;;;;;;7.45;4.50;;;;;;;8.07;100.00;99910.03;5074853;28;20044;-59
2022/09/29 04:42:53;;;;;;;6.75;4.07;;;;;;;8.11;99.89;99905.69;5074125;28;20065;-57
2022/09/29 04:45:22;;;;;;;11.43;4.82;;;;;;;8.14;99.28;99908.94;5074940;28;20810;-57
2022/09/29 04:47:49;;;;;;;6.85;4.60;;;;;;;8.10;99.05;99906.78;5061832;28;20041;-58
2022/09/29 04:50:17;;;;;;;8.70;4.93;;;;;;;8.07;98.76;99910.03;5070467;28;20045;-58
2022/09/29 04:52:45;;;;;;;8.30;5.07;;;;;;;8.07;99.24;99906.50;5065120;28;20068;-59
2022/09/29 04:55:14;;;;;;;8.82;4.97;;;;;;;8.10;100.00;99914.94;5073413;28;20041;-57
2022/09/29 04:57:43;;;;;;;7.82;4.65;;;;;;;8.13;99.38;99910.84;5071748;28;20044;-57
2022/09/29 05:00:11;;;;;;;7.15;4.65;;;;;;;8.14;100.00;99914.38;5074602;28;20040;-59
2022/09/29 05:02:39;;;;;;;7.82;4.57;;;;;;;8.15;100.00;99919.50;5073438;28;20045;-57
2022/09/29 05:05:08;;;;;;;7.50;4.60;;;;;;;8.18;99.55;99916.28;5072581;28;20037;-57
2022/09/29 05:07:36;;;;;;;7.50;4.75;;;;;;;8.15;100.00;99916.00;5071391;28;20040;-56
2022/09/29 05:10:05;;;;;;;6.85;4.72;;;;;;;8.16;99.62;99923.06;5063439;28;20086;-55
2022/09/29 05:12:33;;;;;;;7.72;5.00;;;;;;;8.15;99.19;99921.41;5070130;28;20048;-57
2022/09/29 05:15:01;;;;;;;9.02;4.80;;;;;;;8.14;99.25;99925.22;5072501;28;20146;-60
2022/09/29 05:17:28;;;;;;;8.75;5.10;;;;;;;8.07;99.51;99920.88;5072173;28;20518;-60
2022/09/29 05:19:56;;;;;;;10.68;4.97;;;;;;;8.04;99.58;99926.88;5074119;28;20494;-57
2022/09/29 05:22:24;;;;;;;7.10;4.75;;;;;;;8.03;99.35;99924.41;5073139;28;20045;-55
2022/09/29 05:24:52;;;;;;;8.63;4.93;;;;;;;8.02;99.17;99923.59;5051471;28;20063;-56
2022/09/29 05:27:21;;;;;;;8.98;5.03;;;;;;;8.03;99.60;99935.25;5065465;28;20052;-56
2022/09/29 05:29:49;;;;;;;10.55;5.22;;;;;;;8.03;99.38;99932.56;5082659;28;20098;-57
2022/09/29 05:32:17;;;;;;;8.18;4.97;;;;;;;8.04;99.90;99940.44;5087642;28;20090;-59
2022/09/29 05:34:45;;;;;;;10.02;5.10;;;;;;;8.04;99.50;99943.13;5073357;28;20067;-60
2022/09/29 05:37:12;;;;;;;12.00;5.57;;;;;;;8.02;99.14;99941.78;5068644;28;20069;-56
2022/09/29 05:39:40;;;;;;;8.60;5.22;;;;;;;7.96;98.71;99954.56;5062775;28;20044;-57
2022/09/29 05:42:11;;;;;;;9.65;5.45;;;;;;;7.89;98.32;99951.28;5070387;28;20462;-58
2022/09/29 05:44:38;;;;;;;10.73;5.63;;;;;;;7.85;99.56;99955.63;5063969;28;20170;-56
2022/09/29 05:47:06;;;;;;;9.85;5.68;;;;;;;7.85;99.63;99961.84;5060947;28;20052;-58
2022/09/29 05:49:35;;;;;;;8.77;5.10;;;;;;;7.88;100.00;99965.94;5054842;28;20029;-60
2022/09/29 05:52:03;;;;;;;7.28;4.75;;;;;;;7.91;100.00;99962.66;5066349;28;20052;-59
2022/09/29 05:54:31;;;;;;;11.50;5.38;;;;;;;7.95;100.00;99963.75;5052504;28;20388;-60
2022/09/29 05:56:59;;;;;;;8.30;5.00;;;;;;;7.92;99.72;99964.31;5060229;28;20380;-60
2022/09/29 05:59:26;;;;;;;7.95;4.97;;;;;;;7.94;99.85;99967.56;5055069;28;20045;-59
2022/09/29 06:01:54;;;;;;;10.35;5.50;;;;;;;7.89;99.36;99962.16;5062781;28;20041;-56
2022/09/29 06:04:22;;;;;;;10.25;5.80;;;;;;;7.86;99.35;99968.94;5061446;28;20033;-58
2022/09/29 06:06:50;;;;;;;8.18;5.20;;;;;;;7.84;99.91;99978.41;5064389;28;20048;-58
2022/09/29 06:09:17;;;;;;;9.95;6.03;;;;;;;7.80;100.00;99970.00;5065547;28;20049;-58
2022/09/29 06:11:45;;;;;;;8.32;5.22;;;;;;;7.79;100.00;99975.69;5081034;28;20045;-61
2022/09/29 06:14:13;;;;;;;9.60;5.50;;;;;;;7.83;100.00;99971.34;5087168;28;20044;-59
2022/09/29 06:16:50;;;;;;;9.45;6.11;;;;;;;7.88;100.00;99972.16;4706311;28;10001333;-58
2022/09/29 06:19:18;;;;;;;9.07;5.30;;;;;;;7.93;100.00;99979.50;5069089;28;20241;-56
2022/09/29 06:21:45;;;;;;;9.73;5.65;;;;;;;7.98;100.00;99975.97;5057896;28;20565;-57
2022/09/29 06:24:13;;;;;;;8.60;5.47;;;;;;;8.01;100.00;99980.84;5072865;28;20059;-61
2022/09/29 06:26:41;;;;;;;9.95;5.82;;;;;;;8.04;100.00;99983.84;5081507;28;20529;-58
2022/09/29 06:29:09;;;;;;;7.70;5.00;;;;;;;8.06;100.00;99984.38;5075930;28;20036;-58
2022/09/29 06:31:38;;;;;;;10.45;6.32;;;;;;;8.09;100.00;99991.97;5055267;28;20043;-62
2022/09/29 06:34:06;;;;;;;9.40;6.05;;;;;;;8.11;100.00;99992.50;5069953;28;20041;-57
2022/09/29 06:39:21;;;;;;;12.10;5.47;;;;;;;8.17;100.00;99995.22;5061339;28;20097;-54
2022/09/29 06:41:52;;;;;;;9.30;5.43;;;;;;;8.17;100.00;99995.22;5059836;28;20049;-58
2022/09/29 06:44:23;;;;;;;9.45;6.15;;;;;;;8.16;100.00;99993.59;5055477;28;20089;-58
2022/09/29 06:46:51;;;;;;;10.80;6.13;;;;;;;8.09;100.00;100000.09;5057143;28;20048;-55
2022/09/29 06:49:19;;;;;;;14.35;6.13;;;;;;;8.08;100.00;100003.09;5074208;28;20045;-59
2022/09/29 06:51:48;;;;;;;11.13;6.70;;;;;;;8.08;100.00;100003.09;5069844;28;20102;-57
2022/09/29 06:54:19;;;;;;;12.80;6.88;;;;;;;8.11;100.00;100008.78;5071802;28;20563;-60
2022/09/29 06:56:48;;;;;;;12.45;6.78;;;;;;;8.09;100.00;100010.97;5069809;28;20039;-58
2022/09/29 06:59:16;;;;;;;11.95;6.75;;;;;;;8.08;100.00;100009.34;5067014;28;20090;-59
2022/09/29 07:01:48;;;;;;;10.70;6.70;;;;;;;8.10;100.00;100012.59;5055453;28;20044;-55
2022/09/29 07:04:17;;;;;;;10.05;6.10;;;;;;;8.13;100.00;100015.84;5070670;28;20032;-59
2022/09/29 07:06:45;;;;;;;10.88;6.57;;;;;;;8.15;100.00;100019.09;5042428;28;20040;-58
2022/09/29 07:09:15;;;;;;;10.70;6.78;;;;;;;8.15;100.00;100025.31;5071841;28;20041;-58
2022/09/29 07:11:45;;;;;;;11.65;7.13;;;;;;;8.17;100.00;100022.34;5075747;28;20033;-57
2022/09/29 07:14:17;;;;;;;11.15;6.55;;;;;;;8.19;100.00;100026.44;5075358;28;20044;-58
2022/09/29 07:16:47;;;;;;;11.73;7.20;;;;;;;8.20;100.00;100028.06;5075055;28;20055;-59
2022/09/29 07:19:16;;;;;;;11.20;6.80;;;;;;;8.23;100.00;100026.72;5069776;28;20040;-60
2022/09/29 07:21:46;;;;;;;11.98;6.90;;;;;;;8.25;100.00;100032.66;5071691;28;20045;-58
2022/09/29 07:24:13;;;;;;;10.35;7.05;;;;;;;8.27;100.00;100036.75;5076273;28;20044;-55
2022/09/29 07:26:41;;;;;;;11.65;6.22;;;;;;;8.30;100.00;100038.91;5074869;28;20044;-56
2022/09/29 07:29:09;;;;;;;10.07;6.70;;;;;;;8.33;100.00;100042.97;5074243;28;20515;-57
2022/09/29 07:31:44;;;;;;;13.80;6.90;;;;;;;8.35;100.00;100046.25;5059128;28;20037;-58
2022/09/29 07:34:19;;;;;;;12.50;6.63;;;;;;;8.38;100.00;100044.88;5074849;28;20395;-56
2022/09/29 07:36:47;;;;;;;11.65;6.78;;;;;;;8.39;100.00;100046.50;5074371;28;20056;-59
2022/09/29 07:39:15;;;;;;;12.55;7.15;;;;;;;8.42;100.00;100045.97;5066176;28;20037;-56
2022/09/29 07:41:43;;;;;;;14.07;8.18;;;;;;;8.43;100.00;100043.00;5074616;28;20516;-55
2022/09/29 07:44:10;;;;;;;13.23;7.93;;;;;;;8.47;100.00;100049.53;5078018;28;20103;-53
2022/09/29 07:46:38;;;;;;;11.80;7.72;;;;;;;8.50;100.00;100042.72;5075988;28;20063;-55
2022/09/29 07:49:06;;;;;;;12.32;7.55;;;;;;;8.51;100.00;100045.19;5073908;28;20395;-56
2022/09/29 07:51:34;;;;;;;11.35;7.55;;;;;;;8.57;100.00;100048.69;5057891;28;20498;-54
2022/09/29 07:54:05;;;;;;;12.70;8.15;;;;;;;8.61;100.00;100052.50;5074747;28;20039;-55
2022/09/29 07:56:34;;;;;;;14.57;8.00;;;;;;;8.63;100.00;100058.44;5074654;28;20406;-55
2022/09/29 07:59:02;;;;;;;14.95;8.10;;;;;;;8.64;100.00;100064.72;5070673;28;20044;-57
2022/09/29 08:01:30;;;;;;;14.20;8.40;;;;;;;8.65;100.00;100056.28;5072644;28;20037;-53
2022/09/29 08:03:58;;;;;;;13.60;7.78;;;;;;;8.65;100.00;100059.00;5057906;28;20045;-56
2022/09/29 08:06:27;;;;;;;14.63;7.63;;;;;;;8.68;100.00;100065.78;5075482;28;20049;-54
2022/09/29 08:08:55;;;;;;;11.32;7.10;;;;;;;8.70;100.00;100063.59;5072327;28;20036;-55
2022/09/29 08:11:32;;;;;;;8.88;5.47;;;;;;;8.73;100.00;100069.31;5062753;28;20044;-57
2022/09/29 08:14:01;;;;;;;11.75;7.53;;;;;;;8.76;100.00;100065.22;5075467;28;20383;-57
2022/09/29 08:16:29;;;;;;;11.23;8.43;;;;;;;8.79;100.00;100078.25;5074437;28;20063;-59
2022/09/29 08:18:57;;;;;;;13.07;8.27;;;;;;;8.80;100.00;100074.44;5073545;28;20051;-57
2022/09/29 08:21:26;;;;;;;13.43;7.07;;;;;;;8.85;100.00;100081.75;5059914;28;20054;-59
2022/09/29 08:23:53;;;;;;;13.05;7.63;;;;;;;8.86;100.00;100078.78;5074159;28;20054;-57
2022/09/29 08:26:22;;;;;;;14.13;8.00;;;;;;;8.88;100.00;100082.03;5075164;28;20044;-60
2022/09/29 08:29:06;;;;;;;11.50;7.45;;;;;;;8.91;100.00;100086.91;5072643;28;20499;-60
2022/09/29 08:31:38;;;;;;;11.95;7.95;;;;;;;8.94;100.00;100080.13;5073677;28;20033;-59
2022/09/29 08:34:06;;;;;;;11.65;7.57;;;;;;;8.95;100.00;100087.19;5075430;28;20033;-53
2022/09/29 08:36:35;;;;;;;11.57;7.32;;;;;;;8.98;100.00;100091.28;5056741;28;20040;-54
2022/09/29 08:39:03;;;;;;;11.48;7.45;;;;;;;8.99;100.00;100092.88;5036777;28;20571;-53
2022/09/29 08:41:43;;;;;;;10.68;6.78;;;;;;;9.01;100.00;100099.66;5070995;28;20040;-58
2022/09/29 08:44:18;;;;;;;11.85;7.00;;;;;;;9.05;100.00;100108.09;5074861;28;20036;-59
2022/09/29 08:47:17;;;;;;;13.27;7.65;;;;;;;9.07;100.00;100100.50;5059227;28;20052;-56
2022/09/29 08:49:55;;;;;;;11.68;7.93;;;;;;;9.11;100.00;100102.34;5068827;28;20094;-56
2022/09/29 08:52:44;;;;;;;12.40;7.55;;;;;;;9.15;100.00;100114.31;5074435;28;20035;-57
2022/09/29 08:55:28;;;;;;;14.35;7.63;;;;;;;9.19;100.00;100103.72;5073191;28;20044;-56
2022/09/29 08:58:00;;;;;;;11.50;7.65;;;;;;;9.23;100.00;100109.41;5068321;28;20040;-59
2022/09/29 09:00:39;;;;;;;11.95;8.20;;;;;;;9.25;100.00;100108.03;5064458;28;20453;-59
2022/09/29 09:03:31;;;;;;;10.75;7.43;;;;;;;9.27;100.00;100108.56;5072086;28;20048;-56
2022/09/29 09:06:23;;;;;;;12.27;6.80;;;;;;;9.31;100.00;100106.94;5073069;28;20040;-57
2022/09/29 09:09:00;;;;;;;10.93;7.30;;;;;;;9.35;100.00;100110.72;5073418;28;20479;-56
2022/09/29 09:11:31;;;;;;;11.18;6.55;;;;;;;9.36;100.00;100115.06;5073000;28;20044;-56
2022/09/29 09:14:21;;;;;;;11.18;7.13;;;;;;;9.41;100.00;100116.16;5073250;28;20041;-59
2022/09/29 09:17:16;;;;;;;14.20;6.80;;;;;;;9.44;100.00;100119.13;5072558;28;20060;-54
2022/09/29 09:19:54;;;;;;;12.50;7.10;;;;;;;9.47;100.00;100124.00;5072788;28;20040;-56
2022/09/29 09:22:24;;;;;;;11.90;7.10;;;;;;;9.50;100.00;100130.78;5073705;28;20044;-57
2022/09/29 09:25:18;;;;;;;11.80;6.40;;;;;;;9.51;100.00;100126.97;5072792;28;20051;-59
2022/09/29 09:28:03;;;;;;;10.02;6.85;;;;;;;9.53;100.00;100130.25;5072154;28;20047;-58
2022/09/29 09:30:55;;;;;;;10.73;6.80;;;;;;;9.55;100.00;100128.88;5063143;28;20129;-58
2022/09/29 09:33:29;;;;;;;11.07;6.90;;;;;;;9.59;100.00;100129.13;5073729;28;20521;-58
2022/09/29 09:36:04;;;;;;;11.25;7.30;;;;;;;9.62;100.00;100125.84;5072422;28;20098;-58
2022/09/29 09:38:45;;;;;;;10.23;6.50;;;;;;;9.68;100.00;100127.44;5072829;28;20044;-57
2022/09/29 09:41:16;;;;;;;9.55;6.20;;;;;;;9.73;100.00;100134.78;5072464;28;20406;-58
2022/09/29 09:43:47;;;;;;;9.75;5.10;;;;;;;9.77;100.00;100130.41;5072214;28;20387;-57
2022/09/29 09:46:40;;;;;;;6.72;4.38;;;;;;;9.80;100.00;100130.66;5072769;28;20044;-57
2022/09/29 09:49:15;;;;;;;9.73;4.88;;;;;;;9.87;100.00;100130.34;5068862;28;20077;-58
2022/09/29 09:51:49;;;;;;;8.27;5.28;;;;;;;9.90;100.00;100134.41;5073232;28;20048;-54
2022/09/29 09:54:30;;;;;;;9.52;5.85;;;;;;;9.90;100.00;100134.41;5055515;28;20045;-56
2022/09/29 09:57:28;;;;;;;9.43;5.75;;;;;;;9.90;100.00;100143.38;5068826;28;20025;-56
2022/09/29 10:00:11;;;;;;;7.38;5.18;;;;;;;9.92;100.00;100140.41;5061098;28;20028;-59
2022/09/29 10:02:51;;;;;;;11.45;5.93;;;;;;;9.94;100.00;100138.22;5073622;28;20044;-59
2022/09/29 10:05:23;;;;;;;7.47;4.72;;;;;;;9.96;100.00;100136.03;5073953;28;20097;-57
2022/09/29 10:07:51;;;;;;;7.13;4.93;;;;;;;10.01;100.00;100142.25;5077149;28;20044;-55
2022/09/29 10:10:24;;;;;;;7.40;4.35;;;;;;;10.05;100.00;100142.47;5065064;28;20128;-55
2022/09/29 10:12:59;;;;;;;8.73;5.65;;;;;;;10.06;100.00;100144.13;5077886;28;20116;-54
2022/09/29 10:15:36;;;;;;;7.43;5.00;;;;;;;10.09;100.00;100149.00;5056293;28;20056;-59
2022/09/29 10:18:18;;;;;;;5.95;3.75;;;;;;;10.17;100.00;100145.69;5072386;28;20109;-58
2022/09/29 10:20:46;;;;;;;6.28;3.97;;;;;;;10.21;100.00;100141.28;5072511;28;20037;-57
2022/09/29 10:23:26;;;;;;;9.45;5.20;;;;;;;10.21;100.00;100146.75;5056192;28;20078;-53
2022/09/29 10:25:59;;;;;;;9.10;4.60;;;;;;;10.22;100.00;100153.00;5083088;28;20108;-57
2022/09/29 10:28:40;;;;;;;6.53;4.13;;;;;;;10.27;100.00;100153.00;5089847;28;20079;-56
2022/09/29 10:31:22;;;;;;;10.20;4.70;;;;;;;10.32;100.00;100157.59;5074629;28;20045;-54
2022/09/29 10:34:00;;;;;;;7.25;4.50;;;;;;;10.37;100.00;100155.66;5078299;28;20521;-54
2022/09/29 10:36:33;;;;;;;9.50;4.18;;;;;;;10.42;100.00;100152.91;5080524;28;20132;-56
2022/09/29 10:39:00;;;;;;;6.35;3.70;;;;;;;10.45;100.00;100156.97;5071432;28;20053;-53
2022/09/29 10:41:52;;;;;;;6.25;3.97;;;;;;;10.49;100.00;100160.75;5072413;28;20055;-56
2022/09/29 10:44:21;;;;;;;6.03;3.78;;;;;;;10.52;100.00;100168.34;5072178;28;20052;-53
2022/09/29 10:46:54;;;;;;;4.10;2.90;;;;;;;10.58;100.00;100156.34;5064554;28;20058;-58
2022/09/29 10:49:24;;;;;;;7.53;3.78;;;;;;;10.60;100.00;100159.56;5072039;28;20040;-56
2022/09/29 10:52:04;;;;;;;6.03;3.33;;;;;;;10.63;98.99;100159.03;5071836;28;20380;-55
2022/09/29 10:54:36;;;;;;;6.57;4.03;;;;;;;10.69;98.76;100162.50;5055635;28;20443;-56
2022/09/29 10:57:13;;;;;;;6.13;3.97;;;;;;;10.72;98.45;100167.38;5051442;28;20082;-62
2022/09/29 10:59:52;;;;;;;8.32;4.22;;;;;;;10.74;98.04;100170.63;5066522;28;20451;-57
2022/09/29 11:02:40;;;;;;;6.57;3.90;;;;;;;10.76;97.36;100165.72;5073121;28;20040;-54
2022/09/29 11:05:20;;;;;;;5.88;4.15;;;;;;;10.81;97.45;100170.31;5071040;28;20068;-55
2022/09/29 11:07:50;;;;;;;4.68;3.65;;;;;;;10.89;97.45;100166.97;5061552;28;20506;-55
2022/09/29 11:10:37;;;;;;;6.55;4.05;;;;;;;10.92;97.89;100169.13;5058779;28;20043;-53
2022/09/29 11:13:25;;;;;;;6.65;4.20;;;;;;;10.97;97.62;100166.34;5060132;28;20044;-57
2022/09/29 11:16:03;;;;;;;7.63;4.40;;;;;;;11.01;96.93;100163.84;5068747;28;20538;-58
2022/09/29 11:18:36;;;;;;;9.98;3.90;;;;;;;11.06;97.14;100167.38;5045114;28;20094;-55
2022/09/29 11:21:16;;;;;;;6.78;4.10;;;;;;;11.14;97.05;100167.84;5071186;28;20045;-57
2022/09/29 11:24:21;;;;;;;7.57;4.03;;;;;;;11.30;97.73;100174.75;5072539;28;20048;-56
2022/09/29 11:27:12;;;;;;;8.73;5.25;;;;;;;11.30;95.26;100164.66;5063368;28;20033;-57
2022/09/29 11:29:53;;;;;;;7.85;4.90;;;;;;;11.30;94.47;100174.75;5072326;28;20059;-56
2022/09/29 11:32:29;;;;;;;4.50;3.22;;;;;;;11.35;94.62;100169.22;5075010;28;20045;-54
2022/09/29 11:35:04;;;;;;;8.30;4.38;;;;;;;11.35;94.65;100180.13;5075899;28;20081;-55
2022/09/29 11:38:12;;;;;;;7.53;4.37;;;;;;;11.42;95.06;100169.69;5069942;28;20041;-56
2022/09/29 11:40:53;;;;;;;6.57;3.97;;;;;;;11.47;94.28;100174.28;5076053;28;20291;-52
2022/09/29 11:43:49;;;;;;;9.23;3.88;;;;;;;11.50;93.34;100177.25;5075731;28;20037;-55
2022/09/29 11:46:31;;;;;;;6.68;3.75;;;;;;;11.58;93.71;100177.72;5062400;28;20062;-53
2022/09/29 11:49:18;;;;;;;7.60;4.72;;;;;;;11.61;92.30;100177.16;5075764;28;20102;-54
2022/09/29 11:52:04;;;;;;;7.43;4.50;;;;;;;11.64;91.64;100171.09;5075592;28;20499;-53
2022/09/29 11:54:56;;;;;;;8.38;4.38;;;;;;;11.64;89.82;100179.28;5075837;28;20036;-54
2022/09/29 11:57:52;;;;;;;7.05;3.70;;;;;;;11.69;90.42;100182.78;5073029;28;20411;-53
2022/09/29 12:00:26;;;;;;;7.03;4.20;;;;;;;11.77;89.74;100186.78;5076063;28;20036;-53
2022/09/29 12:03:03;;;;;;;7.20;4.13;;;;;;;11.75;89.75;100177.25;5074283;28;20090;-51